sensor_id;sensor_type;location;lat;lon;timestamp;pressure;altitude;pressure_sealevel;temperature;humidity
74310;BME280;62722;51.142;17.052;2023-04-01T00:01:56;98533.81;;;8.77;92.79
74310;BME280;62722;51.142;17.052;2023-04-01T00:04:25;98530.78;;;8.82;92.43
74310;BME280;62722;51.142;17.052;2023-04-01T00:06:52;98534.25;;;8.83;92.47
74310;BME280;62722;51.142;17.052;2023-04-01T00:09:20;98535.22;;;8.82;92.86
74310;BME280;62722;51.142;17.052;2023-04-01T00:11:47;98533.53;;;8.80;92.60
74310;BME280;62722;51.142;17.052;2023-04-01T00:14:15;98528.84;;;8.84;92.46
74310;BME280;62722;51.142;17.052;2023-04-01T00:16:42;98535.78;;;8.85;92.35
74310;BME280;62722;51.142;17.052;2023-04-01T00:19:21;98528.28;;;8.80;92.44
74310;BME280;62722;51.142;17.052;2023-04-01T00:21:50;98537.56;;;8.85;93.04
74310;BME280;62722;51.142;17.052;2023-04-01T00:24:18;98529.94;;;8.82;92.48
74310;BME280;62722;51.142;17.052;2023-04-01T00:26:46;98528.53;;;8.77;93.26
74310;BME280;62722;51.142;17.052;2023-04-01T00:29:13;98533.81;;;8.77;92.13
74310;BME280;62722;51.142;17.052;2023-04-01T00:31:41;98529.22;;;8.79;92.79
74310;BME280;62722;51.142;17.052;2023-04-01T00:34:08;98530.78;;;8.82;91.42
74310;BME280;62722;51.142;17.052;2023-04-01T00:36:36;98525.81;;;8.89;90.57
74310;BME280;62722;51.142;17.052;2023-04-01T00:39:05;98533.59;;;8.90;90.71
74310;BME280;62722;51.142;17.052;2023-04-01T00:41:32;98530.53;;;8.95;90.55
74310;BME280;62722;51.142;17.052;2023-04-01T00:44:18;98527.78;;;8.96;90.79
74310;BME280;62722;51.142;17.052;2023-04-01T00:46:46;98526.56;;;9.00;90.15
74310;BME280;62722;51.142;17.052;2023-04-01T00:49:18;98527.97;;;9.04;90.42
74310;BME280;62722;51.142;17.052;2023-04-01T00:51:49;98528.09;;;9.03;89.75
74310;BME280;62722;51.142;17.052;2023-04-01T00:54:19;98528.09;;;9.03;89.85
74310;BME280;62722;51.142;17.052;2023-04-01T00:56:49;98522.81;;;9.03;89.35
74310;BME280;62722;51.142;17.052;2023-04-01T00:59:24;98533.34;;;9.03;89.32
74310;BME280;62722;51.142;17.052;2023-04-01T01:01:54;98532.28;;;9.05;89.87
74310;BME280;62722;51.142;17.052;2023-04-01T01:04:24;98532.00;;;9.08;90.45
74310;BME280;62722;51.142;17.052;2023-04-01T01:06:59;98527.44;;;9.10;91.15
74310;BME280;62722;51.142;17.052;2023-04-01T01:09:39;98541.41;;;9.11;90.98
74310;BME280;62722;51.142;17.052;2023-04-01T01:12:13;98537.13;;;9.10;90.85
74310;BME280;62722;51.142;17.052;2023-04-01T01:14:52;98536.16;;;9.11;90.93
74310;BME280;62722;51.142;17.052;2023-04-01T01:17:28;98531.16;;;9.08;91.52
74310;BME280;62722;51.142;17.052;2023-04-01T01:29:01;98524.88;;;8.90;93.20
74310;BME280;62722;51.142;17.052;2023-04-01T01:31:38;98535.66;;;8.87;93.84
74310;BME280;62722;51.142;17.052;2023-04-01T01:34:15;98526.94;;;8.86;93.93
74310;BME280;62722;51.142;17.052;2023-04-01T01:36:50;98527.78;;;8.87;94.06
74310;BME280;62722;51.142;17.052;2023-04-01T01:39:21;98526.66;;;8.89;93.73
74310;BME280;62722;51.142;17.052;2023-04-01T01:41:55;98529.13;;;8.91;93.67
74310;BME280;62722;51.142;17.052;2023-04-01T01:44:23;98540.50;;;8.91;93.48
74310;BME280;62722;51.142;17.052;2023-04-01T01:46:53;98519.47;;;8.91;93.46
74310;BME280;62722;51.142;17.052;2023-04-01T01:49:21;98516.72;;;8.93;93.51
74310;BME280;62722;51.142;17.052;2023-04-01T01:51:50;98524.72;;;8.91;93.02
74310;BME280;62722;51.142;17.052;2023-04-01T01:54:18;98525.56;;;8.92;92.78
74310;BME280;62722;51.142;17.052;2023-04-01T01:56:48;98519.47;;;8.91;92.57
74310;BME280;62722;51.142;17.052;2023-04-01T01:59:18;98515.88;;;8.92;92.22
74310;BME280;62722;51.142;17.052;2023-04-01T02:01:51;98512.28;;;8.93;91.69
74310;BME280;62722;51.142;17.052;2023-04-01T02:04:19;98515.47;;;8.97;91.88
74310;BME280;62722;51.142;17.052;2023-04-01T02:06:53;98516.03;;;9.00;91.77
74310;BME280;62722;51.142;17.052;2023-04-01T02:09:23;98515.22;;;9.00;91.61
74310;BME280;62722;51.142;17.052;2023-04-01T02:11:52;98517.56;;;9.03;91.63
74310;BME280;62722;51.142;17.052;2023-04-01T02:14:23;98517.44;;;9.04;91.86
74310;BME280;62722;51.142;17.052;2023-04-01T02:16:55;98511.63;;;9.01;91.97
74310;BME280;62722;51.142;17.052;2023-04-01T02:19:27;98500.09;;;9.02;91.72
74310;BME280;62722;51.142;17.052;2023-04-01T02:22:01;98501.66;;;9.04;91.92
74310;BME280;62722;51.142;17.052;2023-04-01T02:24:33;98498.19;;;9.04;91.97
74310;BME280;62722;51.142;17.052;2023-04-01T02:27:03;98495.44;;;9.05;92.31
74310;BME280;62722;51.142;17.052;2023-04-01T02:29:31;98507.75;;;9.05;92.24
74310;BME280;62722;51.142;17.052;2023-04-01T02:31:58;98505.38;;;9.02;91.71
74310;BME280;62722;51.142;17.052;2023-04-01T02:34:27;98502.72;;;9.02;91.47
74310;BME280;62722;51.142;17.052;2023-04-01T02:36:55;98495.69;;;9.02;92.00
74310;BME280;62722;51.142;17.052;2023-04-01T02:39:25;98495.44;;;9.05;91.98
74310;BME280;62722;51.142;17.052;2023-04-01T02:41:53;98500.69;;;9.05;91.62
74310;BME280;62722;51.142;17.052;2023-04-01T02:44:20;98498.75;;;9.07;91.35
74310;BME280;62722;51.142;17.052;2023-04-01T02:46:48;98498.88;;;9.06;91.47
74310;BME280;62722;51.142;17.052;2023-04-01T02:49:15;98491.25;;;9.03;91.42
74310;BME280;62722;51.142;17.052;2023-04-01T02:51:43;98501.78;;;9.03;91.04
74310;BME280;62722;51.142;17.052;2023-04-01T02:54:10;98507.03;;;9.03;91.33
74310;BME280;62722;51.142;17.052;2023-04-01T02:56:39;98508.84;;;9.02;91.41
74310;BME280;62722;51.142;17.052;2023-04-01T02:59:06;98510.63;;;9.02;91.29
74310;BME280;62722;51.142;17.052;2023-04-01T03:01:34;98506.19;;;9.02;91.07
74310;BME280;62722;51.142;17.052;2023-04-01T03:04:01;98519.81;;;9.07;91.00
74310;BME280;62722;51.142;17.052;2023-04-01T03:06:28;98511.91;;;9.07;90.69
74310;BME280;62722;51.142;17.052;2023-04-01T03:08:56;98511.91;;;9.07;90.33
74310;BME280;62722;51.142;17.052;2023-04-01T03:11:24;98515.56;;;9.16;90.06
74310;BME280;62722;51.142;17.052;2023-04-01T03:13:53;98513.47;;;9.19;89.63
74310;BME280;62722;51.142;17.052;2023-04-01T03:16:20;98516.22;;;9.18;90.14
74310;BME280;62722;51.142;17.052;2023-04-01T03:18:47;98520.28;;;9.22;90.07
74310;BME280;62722;51.142;17.052;2023-04-01T03:21:20;98511.41;;;9.23;89.82
74310;BME280;62722;51.142;17.052;2023-04-01T03:23:47;98518.19;;;9.25;90.21
74310;BME280;62722;51.142;17.052;2023-04-01T03:26:15;98523.34;;;9.27;90.02
74310;BME280;62722;51.142;17.052;2023-04-01T03:28:42;98529.84;;;9.23;90.27
74310;BME280;62722;51.142;17.052;2023-04-01T03:31:11;98519.59;;;9.20;90.69
74310;BME280;62722;51.142;17.052;2023-04-01T03:33:39;98522.06;;;9.21;90.50
74310;BME280;62722;51.142;17.052;2023-04-01T03:36:06;98522.06;;;9.21;90.27
74310;BME280;62722;51.142;17.052;2023-04-01T03:38:34;98528.16;;;9.22;90.70
74310;BME280;62722;51.142;17.052;2023-04-01T03:41:01;98524.25;;;9.16;90.94
74310;BME280;62722;51.142;17.052;2023-04-01T03:43:29;98530.34;;;9.17;91.21
74310;BME280;62722;51.142;17.052;2023-04-01T03:45:57;98530.34;;;9.17;91.75
74310;BME280;62722;51.142;17.052;2023-04-01T03:48:26;98532.31;;;9.15;92.13
74310;BME280;62722;51.142;17.052;2023-04-01T03:50:53;98531.03;;;9.09;92.94
74310;BME280;62722;51.142;17.052;2023-04-01T03:53:20;98533.81;;;9.08;93.47
74310;BME280;62722;51.142;17.052;2023-04-01T03:55:48;98536.13;;;9.01;93.76
74310;BME280;62722;51.142;17.052;2023-04-01T03:58:17;98537.47;;;8.96;94.00
74310;BME280;62722;51.142;17.052;2023-04-01T04:00:44;98539.16;;;8.97;94.24
74310;BME280;62722;51.142;17.052;2023-04-01T04:03:11;98534.16;;;8.94;94.54
74310;BME280;62722;51.142;17.052;2023-04-01T04:05:47;98543.28;;;8.90;94.53
74310;BME280;62722;51.142;17.052;2023-04-01T04:08:14;98543.56;;;8.87;94.79
74310;BME280;62722;51.142;17.052;2023-04-01T04:10:42;98548.53;;;8.90;95.25
74310;BME280;62722;51.142;17.052;2023-04-01T04:13:09;98547.72;;;8.89;95.08
74310;BME280;62722;51.142;17.052;2023-04-01T04:15:38;98554.75;;;8.89;95.22
74310;BME280;62722;51.142;17.052;2023-04-01T04:18:05;98548.81;;;8.87;95.40
74310;BME280;62722;51.142;17.052;2023-04-01T04:20:32;98548.63;;;8.78;95.59
74310;BME280;62722;51.142;17.052;2023-04-01T04:23:02;98548.47;;;8.80;95.97
74310;BME280;62722;51.142;17.052;2023-04-01T04:25:29;98543.47;;;8.77;96.42
74310;BME280;62722;51.142;17.052;2023-04-01T04:27:56;98554.66;;;8.69;96.88
74310;BME280;62722;51.142;17.052;2023-04-01T04:30:24;98561.13;;;8.65;97.08
74310;BME280;62722;51.142;17.052;2023-04-01T04:32:51;98555.88;;;8.65;97.13
74310;BME280;62722;51.142;17.052;2023-04-01T04:35:19;98552.56;;;8.63;97.43
74310;BME280;62722;51.142;17.052;2023-04-01T04:37:46;98549.78;;;8.65;97.61
74310;BME280;62722;51.142;17.052;2023-04-01T04:40:15;98546.47;;;8.63;97.72
74310;BME280;62722;51.142;17.052;2023-04-01T04:42:42;98554.91;;;8.66;98.00
74310;BME280;62722;51.142;17.052;2023-04-01T04:45:10;98552.28;;;8.66;97.99
74310;BME280;62722;51.142;17.052;2023-04-01T04:47:38;98558.66;;;8.64;98.00
74310;BME280;62722;51.142;17.052;2023-04-01T04:50:07;98556.97;;;8.63;98.17
74310;BME280;62722;51.142;17.052;2023-04-01T04:52:35;98555.44;;;8.60;98.30
74310;BME280;62722;51.142;17.052;2023-04-01T04:55:03;98561.66;;;8.59;98.30
74310;BME280;62722;51.142;17.052;2023-04-01T04:57:32;98561.66;;;8.59;98.51
74310;BME280;62722;51.142;17.052;2023-04-01T04:59:59;98561.41;;;8.62;98.80
74310;BME280;62722;51.142;17.052;2023-04-01T05:02:27;98565.72;;;8.63;98.63
74310;BME280;62722;51.142;17.052;2023-04-01T05:04:54;98565.56;;;8.65;99.03
74310;BME280;62722;51.142;17.052;2023-04-01T05:07:21;98566.13;;;8.68;98.73
74310;BME280;62722;51.142;17.052;2023-04-01T05:09:50;98566.66;;;8.62;98.75
74310;BME280;62722;51.142;17.052;2023-04-01T05:12:17;98562.25;;;8.63;98.82
74310;BME280;62722;51.142;17.052;2023-04-01T05:14:46;98573.31;;;8.66;98.87
74310;BME280;62722;51.142;17.052;2023-04-01T05:17:14;98567.13;;;8.67;98.56
74310;BME280;62722;51.142;17.052;2023-04-01T05:19:41;98568.91;;;8.67;98.49
74310;BME280;62722;51.142;17.052;2023-04-01T05:22:08;98563.38;;;8.70;98.43
74310;BME280;62722;51.142;17.052;2023-04-01T05:24:36;98569.47;;;8.70;98.62
74310;BME280;62722;51.142;17.052;2023-04-01T05:27:03;98566.13;;;8.68;98.95
74310;BME280;62722;51.142;17.052;2023-04-01T05:29:31;98573.31;;;8.66;98.66
74310;BME280;62722;51.142;17.052;2023-04-01T05:32:02;98569.03;;;8.65;99.04
74310;BME280;62722;51.142;17.052;2023-04-01T05:34:29;98568.06;;;8.66;99.15
74310;BME280;62722;51.142;17.052;2023-04-01T05:36:56;98572.22;;;8.69;99.31
74310;BME280;62722;51.142;17.052;2023-04-01T05:39:25;98570.06;;;8.74;99.40
74310;BME280;62722;51.142;17.052;2023-04-01T05:41:52;98571.16;;;8.71;99.04
74310;BME280;62722;51.142;17.052;2023-04-01T05:44:20;98563.97;;;8.73;98.88
74310;BME280;62722;51.142;17.052;2023-04-01T05:46:48;98576.16;;;8.74;98.99
74310;BME280;62722;51.142;17.052;2023-04-01T05:49:17;98571.56;;;8.76;99.36
74310;BME280;62722;51.142;17.052;2023-04-01T05:51:44;98577.56;;;8.78;98.92
74310;BME280;62722;51.142;17.052;2023-04-01T05:54:11;98567.03;;;8.78;98.95
74310;BME280;62722;51.142;17.052;2023-04-01T05:56:39;98579.09;;;8.81;99.15
74310;BME280;62722;51.142;17.052;2023-04-01T05:59:09;98575.63;;;8.80;99.23
74310;BME280;62722;51.142;17.052;2023-04-01T06:01:37;98578.97;;;8.83;99.29
74310;BME280;62722;51.142;17.052;2023-04-01T06:04:12;98580.88;;;8.80;99.22
74310;BME280;62722;51.142;17.052;2023-04-01T06:06:42;98582.81;;;8.78;99.33
74310;BME280;62722;51.142;17.052;2023-04-01T06:09:14;98580.88;;;8.80;99.73
74310;BME280;62722;51.142;17.052;2023-04-01T06:12:00;98583.00;;;8.87;99.60
74310;BME280;62722;51.142;17.052;2023-04-01T06:14:39;98598.66;;;8.88;99.46
74310;BME280;62722;51.142;17.052;2023-04-01T06:17:22;98595.19;;;8.88;99.73
74310;BME280;62722;51.142;17.052;2023-04-01T06:19:54;98588.97;;;8.89;99.67
74310;BME280;62722;51.142;17.052;2023-04-01T06:22:47;98589.66;;;8.91;99.59
74310;BME280;62722;51.142;17.052;2023-04-01T06:25:31;98589.53;;;8.92;99.63
74310;BME280;62722;51.142;17.052;2023-04-01T06:31:01;98592.88;;;8.94;99.70
74310;BME280;62722;51.142;17.052;2023-04-01T06:33:44;98597.88;;;8.97;99.64
74310;BME280;62722;51.142;17.052;2023-04-01T06:36:25;98585.69;;;8.96;99.07
74310;BME280;62722;51.142;17.052;2023-04-01T06:39:22;98596.09;;;8.98;99.79
74310;BME280;62722;51.142;17.052;2023-04-01T06:42:07;98589.56;;;9.02;99.52
74310;BME280;62722;51.142;17.052;2023-04-01T06:44:46;98599.88;;;9.05;99.63
74310;BME280;62722;51.142;17.052;2023-04-01T06:47:28;98595.44;;;9.05;99.16
74310;BME280;62722;51.142;17.052;2023-04-01T06:50:04;98598.75;;;9.07;99.43
74310;BME280;62722;51.142;17.052;2023-04-01T06:52:42;98590.75;;;9.09;99.63
74310;BME280;62722;51.142;17.052;2023-04-01T06:55:26;98589.75;;;9.10;99.78
74310;BME280;62722;51.142;17.052;2023-04-01T06:57:56;98593.78;;;9.14;100.00
74310;BME280;62722;51.142;17.052;2023-04-01T07:00:29;98597.38;;;9.13;99.95
74310;BME280;62722;51.142;17.052;2023-04-01T07:03:06;98594.06;;;9.11;100.00
74310;BME280;62722;51.142;17.052;2023-04-01T07:05:38;98589.47;;;9.13;100.00
74310;BME280;62722;51.142;17.052;2023-04-01T07:08:10;98587.19;;;9.19;100.00
74310;BME280;62722;51.142;17.052;2023-04-01T07:10:47;98588.97;;;9.19;99.88
74310;BME280;62722;51.142;17.052;2023-04-01T07:13:20;98583.56;;;9.20;100.00
74310;BME280;62722;51.142;17.052;2023-04-01T07:15:56;98578.84;;;9.24;100.00
74310;BME280;62722;51.142;17.052;2023-04-01T07:18:32;98587.59;;;9.24;99.86
74310;BME280;62722;51.142;17.052;2023-04-01T07:21:01;98580.41;;;9.26;99.44
74310;BME280;62722;51.142;17.052;2023-04-01T07:23:33;98576.41;;;9.32;100.00
74310;BME280;62722;51.142;17.052;2023-04-01T07:26:15;98579.75;;;9.34;100.00
74310;BME280;62722;51.142;17.052;2023-04-01T07:28:43;98583.91;;;9.37;99.59
74310;BME280;62722;51.142;17.052;2023-04-01T07:31:18;98584.75;;;9.37;99.70
74310;BME280;62722;51.142;17.052;2023-04-01T07:33:55;98587.00;;;9.42;99.23
74310;BME280;62722;51.142;17.052;2023-04-01T07:36:30;98587.56;;;9.45;99.24
74310;BME280;62722;51.142;17.052;2023-04-01T07:39:07;98581.56;;;9.43;98.60
74310;BME280;62722;51.142;17.052;2023-04-01T07:41:49;98593.66;;;9.46;98.96
74310;BME280;62722;51.142;17.052;2023-04-01T07:44:25;98589.47;;;9.43;98.34
74310;BME280;62722;51.142;17.052;2023-04-01T07:47:08;98588.50;;;9.44;98.79
74310;BME280;62722;51.142;17.052;2023-04-01T07:49:46;98595.44;;;9.45;98.64
74310;BME280;62722;51.142;17.052;2023-04-01T07:52:21;98594.34;;;9.48;98.96
74310;BME280;62722;51.142;17.052;2023-04-01T07:54:56;98585.31;;;9.50;98.92
74310;BME280;62722;51.142;17.052;2023-04-01T07:57:31;98597.97;;;9.56;98.81
74310;BME280;62722;51.142;17.052;2023-04-01T08:00:06;98591.19;;;9.63;98.39
74310;BME280;62722;51.142;17.052;2023-04-01T08:02:45;98594.97;;;9.70;97.88
74310;BME280;62722;51.142;17.052;2023-04-01T08:05:21;98591.66;;;9.78;97.75
74310;BME280;62722;51.142;17.052;2023-04-01T08:07:59;98603.59;;;9.82;96.89
74310;BME280;62722;51.142;17.052;2023-04-01T08:10:33;98600.13;;;9.91;96.97
74310;BME280;62722;51.142;17.052;2023-04-01T08:13:14;98603.75;;;9.90;96.85
74310;BME280;62722;51.142;17.052;2023-04-01T08:15:54;98596.53;;;9.92;97.50
74310;BME280;62722;51.142;17.052;2023-04-01T08:18:31;98597.63;;;9.90;97.21
74310;BME280;62722;51.142;17.052;2023-04-01T08:21:01;98591.81;;;9.96;97.49
74310;BME280;62722;51.142;17.052;2023-04-01T08:23:32;98591.13;;;9.94;96.50
74310;BME280;62722;51.142;17.052;2023-04-01T08:26:01;98600.41;;;9.98;96.55
74310;BME280;62722;51.142;17.052;2023-04-01T08:28:34;98602.34;;;10.05;96.77
74310;BME280;62722;51.142;17.052;2023-04-01T08:31:08;98596.94;;;10.07;96.12
74310;BME280;62722;51.142;17.052;2023-04-01T08:33:47;98601.09;;;10.09;95.75
74310;BME280;62722;51.142;17.052;2023-04-01T08:36:18;98607.41;;;10.18;96.61
74310;BME280;62722;51.142;17.052;2023-04-01T08:38:51;98608.78;;;10.22;96.48
74310;BME280;62722;51.142;17.052;2023-04-01T08:53:43;98595.75;;;10.30;94.94
74310;BME280;62722;51.142;17.052;2023-04-01T08:56:18;98599.34;;;10.29;95.42
74310;BME280;62722;51.142;17.052;2023-04-01T08:59:12;98608.22;;;10.28;94.38
74310;BME280;62722;51.142;17.052;2023-04-01T09:01:54;98607.13;;;10.40;94.17
74310;BME280;62722;51.142;17.052;2023-04-01T09:04:38;98618.50;;;10.50;94.91
74310;BME280;62722;51.142;17.052;2023-04-01T09:07:29;98622.53;;;10.54;93.95
74310;BME280;62722;51.142;17.052;2023-04-01T09:10:18;98610.16;;;10.64;93.29
74310;BME280;62722;51.142;17.052;2023-04-01T09:13:10;98614.16;;;10.68;93.18
74310;BME280;62722;51.142;17.052;2023-04-01T09:19:22;98610.13;;;10.84;92.69
74310;BME280;62722;51.142;17.052;2023-04-01T09:25:15;98623.69;;;10.98;90.68
74310;BME280;62722;51.142;17.052;2023-04-01T09:27:56;98622.31;;;11.04;93.16
74310;BME280;62722;51.142;17.052;2023-04-01T09:36:40;98638.69;;;10.98;90.80
74310;BME280;62722;51.142;17.052;2023-04-01T09:39:35;98636.22;;;10.96;90.74
74310;BME280;62722;51.142;17.052;2023-04-01T09:42:17;98634.41;;;10.97;92.08
74310;BME280;62722;51.142;17.052;2023-04-01T09:44:54;98634.72;;;10.94;92.94
74310;BME280;62722;51.142;17.052;2023-04-01T09:47:48;98634.88;;;10.83;91.02
74310;BME280;62722;51.142;17.052;2023-04-01T09:50:31;98641.94;;;10.72;91.20
74310;BME280;62722;51.142;17.052;2023-04-01T09:53:14;98620.97;;;10.61;91.93
74310;BME280;62722;51.142;17.052;2023-04-01T09:56:19;98642.78;;;10.73;92.43
74310;BME280;62722;51.142;17.052;2023-04-01T09:59:15;98641.53;;;10.77;91.24
74310;BME280;62722;51.142;17.052;2023-04-01T10:02:02;98629.75;;;10.71;91.78
74310;BME280;62722;51.142;17.052;2023-04-01T10:04:48;98640.41;;;10.80;92.19
74310;BME280;62722;51.142;17.052;2023-04-01T10:07:51;98645.09;;;10.95;93.06
74310;BME280;62722;51.142;17.052;2023-04-01T10:11:01;98645.66;;;10.99;91.18
74310;BME280;62722;51.142;17.052;2023-04-01T10:17:18;98654.81;;;11.04;90.39
74310;BME280;62722;51.142;17.052;2023-04-01T10:24:00;98665.66;;;11.11;88.71
74310;BME280;62722;51.142;17.052;2023-04-01T10:45:15;98707.69;;;9.76;94.83
74310;BME280;62722;51.142;17.052;2023-04-01T11:12:37;98683.59;;;9.91;96.91
74310;BME280;62722;51.142;17.052;2023-04-01T11:16:10;98690.88;;;10.08;96.46
74310;BME280;62722;51.142;17.052;2023-04-01T11:29:07;98682.50;;;10.71;94.38
74310;BME280;62722;51.142;17.052;2023-04-01T11:32:09;98693.19;;;10.80;92.60
74310;BME280;62722;51.142;17.052;2023-04-01T11:35:15;98693.34;;;10.78;92.82
74310;BME280;62722;51.142;17.052;2023-04-01T11:38:05;98696.25;;;10.65;89.93
74310;BME280;62722;51.142;17.052;2023-04-01T11:40:59;98713.16;;;10.44;91.72
74310;BME280;62722;51.142;17.052;2023-04-01T11:50:26;98713.63;;;10.09;95.44
74310;BME280;62722;51.142;17.052;2023-04-01T12:00:57;98711.53;;;10.03;97.14
74310;BME280;62722;51.142;17.052;2023-04-01T12:04:58;98708.78;;;10.14;97.75
74310;BME280;62722;51.142;17.052;2023-04-01T12:11:03;98721.75;;;10.27;95.69
74310;BME280;62722;51.142;17.052;2023-04-01T12:18:02;98721.59;;;10.28;96.31
74310;BME280;62722;51.142;17.052;2023-04-01T12:23:37;98718.31;;;10.45;96.28
74310;BME280;62722;51.142;17.052;2023-04-01T12:29:39;98706.50;;;10.68;94.11
74310;BME280;62722;51.142;17.052;2023-04-01T12:32:17;98712.50;;;10.70;92.98
74310;BME280;62722;51.142;17.052;2023-04-01T12:35:00;98701.66;;;10.73;94.85
74310;BME280;62722;51.142;17.052;2023-04-01T12:37:36;98710.97;;;10.87;93.28
74310;BME280;62722;51.142;17.052;2023-04-01T12:40:51;98706.78;;;10.94;93.25
74310;BME280;62722;51.142;17.052;2023-04-01T12:43:42;98708.19;;;10.89;90.95
74310;BME280;62722;51.142;17.052;2023-04-01T12:46:22;98714.00;;;11.02;91.91
74310;BME280;62722;51.142;17.052;2023-04-01T12:49:16;98714.84;;;11.12;90.18
74310;BME280;62722;51.142;17.052;2023-04-01T12:52:07;98716.03;;;11.27;93.31
74310;BME280;62722;51.142;17.052;2023-04-01T12:54:55;98719.81;;;11.34;90.80
74310;BME280;62722;51.142;17.052;2023-04-01T12:57:43;98710.59;;;11.38;87.72
74310;BME280;62722;51.142;17.052;2023-04-01T13:00:31;98717.97;;;11.44;89.74
74310;BME280;62722;51.142;17.052;2023-04-01T13:03:17;98719.31;;;11.58;89.08
74310;BME280;62722;51.142;17.052;2023-04-01T13:09:14;98719.13;;;11.69;89.22
74310;BME280;62722;51.142;17.052;2023-04-01T13:11:57;98723.31;;;11.71;87.55
74310;BME280;62722;51.142;17.052;2023-04-01T13:14:59;98729.31;;;11.74;88.25
74310;BME280;62722;51.142;17.052;2023-04-01T13:17:38;98733.09;;;11.71;87.76
74310;BME280;62722;51.142;17.052;2023-04-01T13:20:15;98736.94;;;11.77;88.11
74310;BME280;62722;51.142;17.052;2023-04-01T13:22:51;98740.13;;;11.80;88.35
74310;BME280;62722;51.142;17.052;2023-04-01T13:25:28;98745.28;;;11.82;88.81
74310;BME280;62722;51.142;17.052;2023-04-01T13:28:06;98748.22;;;11.79;90.39
74310;BME280;62722;51.142;17.052;2023-04-01T13:30:40;98746.69;;;11.76;90.18
74310;BME280;62722;51.142;17.052;2023-04-01T13:33:15;98747.66;;;11.65;89.28
74310;BME280;62722;51.142;17.052;2023-04-01T13:35:48;98755.63;;;11.56;89.33
74310;BME280;62722;51.142;17.052;2023-04-01T13:38:45;98756.47;;;11.47;87.94
74310;BME280;62722;51.142;17.052;2023-04-01T13:41:30;98766.78;;;11.40;89.66
74310;BME280;62722;51.142;17.052;2023-04-01T13:44:07;98763.72;;;11.35;89.39
74310;BME280;62722;51.142;17.052;2023-04-01T13:49:47;98767.63;;;11.41;90.88
74310;BME280;62722;51.142;17.052;2023-04-01T13:52:57;98763.84;;;11.43;90.01
74310;BME280;62722;51.142;17.052;2023-04-01T13:55:46;98764.00;;;11.42;90.49
74310;BME280;62722;51.142;17.052;2023-04-01T14:01:40;98767.44;;;11.52;91.44
74310;BME280;62722;51.142;17.052;2023-04-01T14:04:32;98767.03;;;11.47;89.20
74310;BME280;62722;51.142;17.052;2023-04-01T14:07:18;98768.66;;;11.57;90.65
74310;BME280;62722;51.142;17.052;2023-04-01T14:10:07;98765.47;;;11.54;89.55
74310;BME280;62722;51.142;17.052;2023-04-01T14:12:46;98773.28;;;11.55;89.09
74310;BME280;62722;51.142;17.052;2023-04-01T14:15:27;98761.03;;;11.54;90.02
74310;BME280;62722;51.142;17.052;2023-04-01T14:18:23;98765.34;;;11.55;91.24
74310;BME280;62722;51.142;17.052;2023-04-01T14:21:08;98771.47;;;11.56;89.87
74310;BME280;62722;51.142;17.052;2023-04-01T14:23:57;98773.28;;;11.55;90.30
74310;BME280;62722;51.142;17.052;2023-04-01T14:26:55;98762.88;;;11.44;87.08
74310;BME280;62722;51.142;17.052;2023-04-01T14:29:32;98766.91;;;11.48;86.89
74310;BME280;62722;51.142;17.052;2023-04-01T14:32:21;98773.16;;;11.47;86.38
74310;BME280;62722;51.142;17.052;2023-04-01T14:35:21;98781.38;;;11.44;88.88
74310;BME280;62722;51.142;17.052;2023-04-01T14:38:39;98788.75;;;11.31;88.38
74310;BME280;62722;51.142;17.052;2023-04-01T14:41:27;98783.47;;;11.21;88.84
74310;BME280;62722;51.142;17.052;2023-04-01T14:44:14;98794.16;;;11.20;89.40
74310;BME280;62722;51.142;17.052;2023-04-01T14:49:39;98795.16;;;11.00;88.42
74310;BME280;62722;51.142;17.052;2023-04-01T14:52:15;98812.66;;;11.01;89.30
74310;BME280;62722;51.142;17.052;2023-04-01T14:54:50;98814.88;;;10.96;89.44
74310;BME280;62722;51.142;17.052;2023-04-01T15:01:13;98805.63;;;11.86;86.92
74310;BME280;62722;51.142;17.052;2023-04-01T15:03:55;98824.72;;;12.17;86.29
74310;BME280;62722;51.142;17.052;2023-04-01T15:07:42;98822.63;;;12.20;87.02
74310;BME280;62722;51.142;17.052;2023-04-01T15:14:37;98827.47;;;11.69;88.04
74310;BME280;62722;51.142;17.052;2023-04-01T15:17:27;98823.75;;;11.62;89.47
74310;BME280;62722;51.142;17.052;2023-04-01T15:28:20;98817.38;;;11.07;92.42
74310;BME280;62722;51.142;17.052;2023-04-01T15:31:35;98807.25;;;11.12;91.69
74310;BME280;62722;51.142;17.052;2023-04-01T15:34:30;98830.47;;;11.18;91.82
74310;BME280;62722;51.142;17.052;2023-04-01T15:40:30;98834.03;;;10.88;93.82
74310;BME280;62722;51.142;17.052;2023-04-01T15:43:24;98845.41;;;10.79;93.39
74310;BME280;62722;51.142;17.052;2023-04-01T15:52:37;98861.72;;;10.94;93.09
74310;BME280;62722;51.142;17.052;2023-04-01T15:55:30;98853.91;;;11.02;93.49
74310;BME280;62722;51.142;17.052;2023-04-01T15:58:57;98852.97;;;11.03;94.63
74310;BME280;62722;51.142;17.052;2023-04-01T16:01:34;98854.06;;;11.00;93.35
74310;BME280;62722;51.142;17.052;2023-04-01T16:04:39;98843.25;;;10.94;92.89
74310;BME280;62722;51.142;17.052;2023-04-01T16:11:18;98841.28;;;10.86;94.21
74310;BME280;62722;51.142;17.052;2023-04-01T16:18:45;98855.16;;;10.98;93.22
74310;BME280;62722;51.142;17.052;2023-04-01T16:22:13;98861.47;;;11.26;92.15
74310;BME280;62722;51.142;17.052;2023-04-01T16:24:54;98877.44;;;11.43;91.34
74310;BME280;62722;51.142;17.052;2023-04-01T16:29:05;98878.53;;;11.50;90.77
74310;BME280;62722;51.142;17.052;2023-04-01T16:30:56;98859.34;;;11.58;89.03
74310;BME280;62722;51.142;17.052;2023-04-01T16:33:44;98888.56;;;11.66;89.63
74310;BME280;62722;51.142;17.052;2023-04-01T16:36:26;98893.03;;;11.56;90.99
74310;BME280;62722;51.142;17.052;2023-04-01T16:46:41;98889.94;;;11.60;90.84
74310;BME280;62722;51.142;17.052;2023-04-01T16:49:39;98869.50;;;11.62;90.28
74310;BME280;62722;51.142;17.052;2023-04-01T16:52:52;98889.41;;;11.86;92.05